createdAt,value
2023-04-20T00:00:29.537Z,1018.39
2023-04-20T00:10:36.824Z,1018.38
2023-04-20T00:20:44.245Z,1018.49
2023-04-20T00:30:51.481Z,1018.27
2023-04-20T00:40:58.897Z,1018.38
2023-04-20T00:51:06.057Z,1018.35
2023-04-20T01:01:12.803Z,1018.26
2023-04-20T01:11:20.539Z,1018.24
2023-04-20T01:21:27.754Z,1018.21
2023-04-20T01:31:35.400Z,1018.12
2023-04-20T01:41:42.387Z,1018.15
2023-04-20T01:51:49.562Z,1018.08
2023-04-20T02:01:56.494Z,1018.02
2023-04-20T02:12:03.669Z,1018.06
2023-04-20T02:22:10.628Z,1018.03
2023-04-20T02:32:17.509Z,1018.20
2023-04-20T02:42:24.517Z,1018.10
2023-04-20T02:52:31.562Z,1018.10
2023-04-20T03:02:39.062Z,1018.15
2023-04-20T03:12:46.177Z,1018.16
2023-04-20T03:22:52.853Z,1018.10
2023-04-20T03:32:59.801Z,1018.19
2023-04-20T03:43:06.844Z,1018.32
2023-04-20T03:53:13.937Z,1018.27
2023-04-20T04:03:21.154Z,1018.21
2023-04-20T04:13:28.719Z,1018.31
2023-04-20T04:23:36.024Z,1018.33
2023-04-20T04:33:43.157Z,1018.40
2023-04-20T04:43:50.394Z,1018.41
2023-04-20T04:53:57.006Z,1018.47
2023-04-20T05:04:04.421Z,1018.69
2023-04-20T05:14:12.015Z,1018.45
2023-04-20T05:24:19.553Z,1018.71
2023-04-20T05:34:26.456Z,1018.70
2023-04-20T05:44:33.710Z,1018.77
2023-04-20T05:54:40.349Z,1018.85
2023-04-20T06:04:47.719Z,1018.94
2023-04-20T06:14:55.294Z,1019.08
2023-04-20T06:25:02.478Z,1019.05
2023-04-20T06:35:09.657Z,1019.13
2023-04-20T06:45:16.562Z,1019.20
2023-04-20T06:55:23.826Z,1019.17
2023-04-20T07:05:30.533Z,1019.11
2023-04-20T07:15:37.848Z,1019.21
2023-04-20T07:25:44.677Z,1019.32
2023-04-20T07:35:51.526Z,1019.38
2023-04-20T07:45:59.198Z,1019.38
2023-04-20T07:56:06.900Z,1019.48
2023-04-20T08:06:14.112Z,1019.57
2023-04-20T08:16:21.339Z,1019.53
2023-04-20T08:26:28.013Z,1019.58
2023-04-20T08:36:35.722Z,1019.62
2023-04-20T08:46:43.415Z,1019.64
2023-04-20T08:56:51.347Z,1019.67
2023-04-20T09:06:58.526Z,1019.60
2023-04-20T09:17:05.090Z,1019.65
2023-04-20T09:27:12.594Z,1019.71
2023-04-20T09:37:19.199Z,1019.60
2023-04-20T09:47:26.134Z,1019.62
2023-04-20T09:57:33.200Z,1019.47
2023-04-20T10:07:40.261Z,1019.47
2023-04-20T10:17:47.845Z,1019.50
2023-04-20T10:27:54.780Z,1019.44
2023-04-20T10:38:01.647Z,1019.49
2023-04-20T10:48:08.482Z,1019.31
2023-04-20T10:58:15.639Z,1019.13
2023-04-20T11:08:22.451Z,1019.09
2023-04-20T11:18:30.001Z,1019.20
2023-04-20T11:28:36.638Z,1019.19
2023-04-20T11:38:43.723Z,1019.14
2023-04-20T11:48:50.950Z,1019.05
2023-04-20T11:58:58.203Z,1018.95
2023-04-20T12:09:05.855Z,1018.86
2023-04-20T12:19:13.154Z,1018.78
2023-04-20T12:29:20.416Z,1018.72
2023-04-20T12:39:28.000Z,1018.65
2023-04-20T12:49:34.898Z,1018.52
2023-04-20T12:59:42.334Z,1018.38
2023-04-20T13:09:49.367Z,1018.40
2023-04-20T13:19:56.207Z,1018.18
2023-04-20T13:30:03.173Z,1018.16
2023-04-20T13:40:10.256Z,1018.05
2023-04-20T13:50:17.938Z,1018.00
2023-04-20T14:00:24.768Z,1017.91
2023-04-20T14:10:32.548Z,1017.77
2023-04-20T14:20:39.735Z,1017.77
2023-04-20T14:30:46.510Z,1017.63
2023-04-20T14:40:53.874Z,1017.53
2023-04-20T14:51:01.756Z,1017.43
2023-04-20T15:01:08.444Z,1017.33
2023-04-20T15:11:15.654Z,1017.15
2023-04-20T15:21:22.744Z,1017.16
2023-04-20T15:31:30.500Z,1017.17
2023-04-20T15:41:37.758Z,1017.27
2023-04-20T15:51:45.076Z,1017.12
2023-04-20T16:01:52.323Z,1017.12
2023-04-20T16:11:59.114Z,1017.09
2023-04-20T16:22:05.994Z,1017.12
2023-04-20T16:32:12.965Z,1017.20
2023-04-20T16:42:20.210Z,1017.13
2023-04-20T16:52:26.971Z,1017.17
2023-04-20T17:02:34.013Z,1017.14
2023-04-20T17:12:41.764Z,1017.12
2023-04-20T17:22:49.242Z,1017.24
2023-04-20T17:32:56.885Z,1017.30
2023-04-20T17:43:05.010Z,1017.25
2023-04-20T17:53:11.567Z,1017.28
2023-04-20T18:03:18.769Z,1017.39
2023-04-20T18:13:26.261Z,1017.48
2023-04-20T18:23:33.392Z,1017.51
2023-04-20T18:33:40.014Z,1017.60
2023-04-20T18:43:46.765Z,1017.65
2023-04-20T18:53:53.533Z,1017.66
2023-04-20T19:04:00.720Z,1017.67
2023-04-20T19:14:08.016Z,1017.69
2023-04-20T19:24:15.251Z,1017.63
2023-04-20T19:34:22.235Z,1017.68
2023-04-20T19:44:29.315Z,1017.68
2023-04-20T19:54:36.061Z,1017.72
2023-04-20T20:04:43.510Z,1017.66
2023-04-20T20:14:51.344Z,1017.68
2023-04-20T20:24:58.248Z,1017.65
2023-04-20T20:35:05.244Z,1017.71
2023-04-20T20:45:12.419Z,1017.84
2023-04-20T20:55:19.335Z,1017.80
2023-04-20T21:05:26.421Z,1017.82
2023-04-20T21:15:33.342Z,1017.72
2023-04-20T21:25:40.672Z,1017.70
2023-04-20T21:35:47.492Z,1017.77
2023-04-20T21:45:54.747Z,1017.77
2023-04-20T21:56:01.532Z,1017.78
2023-04-20T22:06:08.548Z,1017.81
2023-04-20T22:16:15.890Z,1017.78
2023-04-20T22:26:23.145Z,1017.84
2023-04-20T22:36:29.829Z,1017.83
2023-04-20T22:46:37.022Z,1017.89
2023-04-20T22:56:43.909Z,1017.90
2023-04-20T23:06:51.305Z,1017.91
2023-04-20T23:16:58.759Z,1017.93
2023-04-20T23:27:06.450Z,1017.89
2023-04-20T23:37:14.090Z,1017.83
2023-04-20T23:47:21.435Z,1017.91
2023-04-20T23:57:28.773Z,1017.96
